createdAt,value
2023-03-19T00:00:46.722Z,9.07
2023-03-19T00:03:13.772Z,9.18
2023-03-19T00:05:40.785Z,9.18
2023-03-19T00:08:07.848Z,9.11
2023-03-19T00:10:39.951Z,9.08
2023-03-19T00:13:07.201Z,8.91
2023-03-19T00:15:34.490Z,8.55
2023-03-19T00:18:01.761Z,8.66
2023-03-19T00:20:28.723Z,8.60
2023-03-19T00:22:56.195Z,8.66
2023-03-19T00:25:23.754Z,8.36
2023-03-19T00:27:51.120Z,8.29
2023-03-19T00:30:18.330Z,8.46
2023-03-19T00:32:48.928Z,8.35
2023-03-19T00:35:16.281Z,8.32
2023-03-19T00:37:43.402Z,8.43
2023-03-19T00:40:11.875Z,8.50
2023-03-19T00:42:38.923Z,8.63
2023-03-19T00:45:06.814Z,8.77
2023-03-19T00:47:33.880Z,8.86
2023-03-19T00:50:00.995Z,8.80
2023-03-19T00:52:28.020Z,8.83
2023-03-19T00:54:55.009Z,8.74
2023-03-19T00:57:22.353Z,8.74
2023-03-19T00:59:49.561Z,8.88
2023-03-19T01:02:17.305Z,8.88
2023-03-19T01:04:44.716Z,8.83
2023-03-19T01:07:12.548Z,8.90
2023-03-19T01:09:39.700Z,8.91
2023-03-19T01:12:08.218Z,8.80
2023-03-19T01:14:35.393Z,8.80
2023-03-19T01:17:02.498Z,8.70
2023-03-19T01:19:30.534Z,8.61
2023-03-19T01:21:58.230Z,8.64
2023-03-19T01:24:29.062Z,8.54
2023-03-19T01:26:56.013Z,8.57
2023-03-19T01:29:23.006Z,8.60
2023-03-19T01:31:49.996Z,8.60
2023-03-19T01:34:17.009Z,8.56
2023-03-19T01:36:44.003Z,8.58
2023-03-19T01:39:11.815Z,8.45
2023-03-19T01:41:38.795Z,8.37
2023-03-19T01:44:32.578Z,8.44
2023-03-19T01:47:06.697Z,8.40
2023-03-19T01:49:34.792Z,8.40
2023-03-19T01:52:05.051Z,8.44
2023-03-19T01:54:33.906Z,8.38
2023-03-19T01:57:09.195Z,8.24
2023-03-19T01:59:47.656Z,8.08
2023-03-19T02:02:31.911Z,8.21
2023-03-19T02:05:03.748Z,8.04
2023-03-19T02:07:34.348Z,8.37
2023-03-19T02:10:07.310Z,8.62
2023-03-19T02:12:35.361Z,8.66
2023-03-19T02:15:02.396Z,8.74
2023-03-19T02:17:29.775Z,8.68
2023-03-19T02:20:32.860Z,8.58
2023-03-19T02:23:08.725Z,8.67
2023-03-19T02:25:46.512Z,8.69
2023-03-19T02:28:17.555Z,8.74
2023-03-19T02:30:45.905Z,8.71
2023-03-19T02:33:18.934Z,8.72
2023-03-19T02:35:49.523Z,8.68
2023-03-19T02:38:16.876Z,8.71
2023-03-19T02:41:01.748Z,8.74
2023-03-19T02:43:29.775Z,8.74
2023-03-19T02:45:57.014Z,8.81
2023-03-19T02:48:25.121Z,8.87
2023-03-19T02:50:52.261Z,8.94
2023-03-19T02:53:19.528Z,8.93
2023-03-19T02:55:47.133Z,8.99
2023-03-19T02:58:14.538Z,9.00
2023-03-19T03:00:42.394Z,9.14
2023-03-19T03:03:09.674Z,9.16
2023-03-19T03:05:36.786Z,9.14
2023-03-19T03:08:04.805Z,9.22
2023-03-19T03:10:33.611Z,9.17
2023-03-19T03:13:01.686Z,9.17
2023-03-19T03:15:28.774Z,9.11
2023-03-19T03:17:56.820Z,9.19
2023-03-19T03:20:24.840Z,9.09
2023-03-19T03:22:52.108Z,9.03
2023-03-19T03:25:19.231Z,8.97
2023-03-19T03:27:46.307Z,8.95
2023-03-19T03:30:13.981Z,8.89
2023-03-19T03:32:41.458Z,8.83
2023-03-19T03:35:09.508Z,8.86
2023-03-19T03:37:38.065Z,8.87
2023-03-19T03:40:08.553Z,8.87
2023-03-19T03:42:37.487Z,8.84
2023-03-19T03:45:05.447Z,8.85
2023-03-19T03:47:32.424Z,8.92
2023-03-19T03:49:59.474Z,8.94
2023-03-19T03:52:31.269Z,8.92
2023-03-19T03:54:58.706Z,8.92
2023-03-19T03:57:26.676Z,8.98
2023-03-19T03:59:54.504Z,9.01
2023-03-19T04:02:21.789Z,8.92
2023-03-19T04:04:48.952Z,8.91
2023-03-19T04:07:16.056Z,8.92
2023-03-19T04:09:43.379Z,8.95
2023-03-19T04:12:11.192Z,8.94
2023-03-19T04:14:38.380Z,8.94
2023-03-19T04:17:05.599Z,8.87
2023-03-19T04:19:32.822Z,8.92
2023-03-19T04:21:59.884Z,8.95
2023-03-19T04:24:26.960Z,8.88
2023-03-19T04:26:53.910Z,8.81
2023-03-19T04:29:21.221Z,8.85
2023-03-19T04:31:48.265Z,8.83
2023-03-19T04:34:15.236Z,8.86
2023-03-19T04:36:42.500Z,8.89
2023-03-19T04:39:10.062Z,8.87
2023-03-19T04:41:37.619Z,8.95
2023-03-19T04:44:04.715Z,8.97
2023-03-19T04:46:31.784Z,9.07
2023-03-19T04:48:59.940Z,9.12
2023-03-19T04:51:27.483Z,9.10
2023-03-19T04:53:54.992Z,9.03
2023-03-19T04:56:22.033Z,9.01
2023-03-19T04:58:49.094Z,9.05
2023-03-19T05:01:16.192Z,9.04
2023-03-19T05:03:43.228Z,9.17
2023-03-19T05:06:10.256Z,9.13
2023-03-19T05:08:37.464Z,9.16
2023-03-19T05:11:04.899Z,9.10
2023-03-19T05:13:32.004Z,8.97
2023-03-19T05:15:59.540Z,8.87
2023-03-19T05:18:27.444Z,8.86
2023-03-19T05:20:55.449Z,8.84
2023-03-19T05:23:23.193Z,8.83
2023-03-19T05:25:50.792Z,8.80
2023-03-19T05:28:17.901Z,8.80
2023-03-19T05:30:44.937Z,8.81
2023-03-19T05:33:12.855Z,8.85
2023-03-19T05:35:40.652Z,8.78
2023-03-19T05:38:08.235Z,8.76
2023-03-19T05:40:36.182Z,8.69
2023-03-19T05:43:03.547Z,8.72
2023-03-19T05:45:30.862Z,8.71
2023-03-19T05:47:57.901Z,8.51
2023-03-19T05:50:25.007Z,8.57
2023-03-19T05:52:51.991Z,8.70
2023-03-19T05:55:19.015Z,8.72
2023-03-19T05:57:46.334Z,8.74
2023-03-19T06:00:16.045Z,8.78
2023-03-19T06:02:44.248Z,8.74
2023-03-19T06:05:12.184Z,8.74
2023-03-19T06:07:39.209Z,8.68
2023-03-19T06:10:07.064Z,8.69
2023-03-19T06:12:34.102Z,8.74
2023-03-19T06:15:01.354Z,8.62
2023-03-19T06:17:28.361Z,8.66
2023-03-19T06:19:55.427Z,8.73
2023-03-19T06:22:22.840Z,8.78
2023-03-19T06:24:49.901Z,8.75
2023-03-19T06:27:16.928Z,8.67
2023-03-19T06:29:43.948Z,8.76
2023-03-19T06:32:11.104Z,8.82
2023-03-19T06:34:38.180Z,8.78
2023-03-19T06:37:05.255Z,8.81
2023-03-19T06:39:32.709Z,8.84
2023-03-19T06:41:59.990Z,8.75
2023-03-19T06:44:27.477Z,8.71
2023-03-19T06:46:54.494Z,8.72
2023-03-19T06:49:22.023Z,8.74
2023-03-19T06:51:49.539Z,8.77
2023-03-19T06:54:16.582Z,8.82
2023-03-19T06:56:43.997Z,8.78
2023-03-19T06:59:13.216Z,8.81
2023-03-19T07:01:43.274Z,8.90
2023-03-19T07:04:11.327Z,8.94
2023-03-19T07:06:38.621Z,8.95
2023-03-19T07:09:05.782Z,8.97
2023-03-19T07:11:35.734Z,8.96
2023-03-19T07:14:03.686Z,8.96
2023-03-19T07:16:30.912Z,9.00
2023-03-19T07:18:57.847Z,9.05
2023-03-19T07:21:25.043Z,9.17
2023-03-19T07:23:52.065Z,9.23
2023-03-19T07:26:19.309Z,9.26
2023-03-19T07:28:46.288Z,9.40
2023-03-19T07:31:13.555Z,9.54
2023-03-19T07:33:40.649Z,9.66
2023-03-19T07:36:08.388Z,9.78
2023-03-19T07:38:35.549Z,9.89
2023-03-19T07:41:03.129Z,9.99
2023-03-19T07:43:31.380Z,10.10
2023-03-19T07:45:59.827Z,10.18
2023-03-19T07:48:27.539Z,10.28
2023-03-19T07:50:55.476Z,10.35
2023-03-19T07:53:23.163Z,10.48
2023-03-19T07:55:50.750Z,10.50
2023-03-19T07:58:18.477Z,10.58
2023-03-19T08:00:46.232Z,10.62
2023-03-19T08:03:14.520Z,10.65
2023-03-19T08:05:42.078Z,10.71
2023-03-19T08:08:09.755Z,10.71
2023-03-19T08:10:38.385Z,10.75
2023-03-19T08:13:06.012Z,10.85
2023-03-19T08:15:33.546Z,10.98
2023-03-19T08:18:03.471Z,11.14
2023-03-19T08:20:30.916Z,11.28
2023-03-19T08:22:59.298Z,11.41
2023-03-19T08:25:27.080Z,11.48
2023-03-19T08:27:54.521Z,11.62
2023-03-19T08:30:21.560Z,11.82
2023-03-19T08:32:49.385Z,11.98
2023-03-19T08:35:19.097Z,12.07
2023-03-19T08:37:46.319Z,12.07
2023-03-19T08:40:14.296Z,12.16
2023-03-19T08:42:44.969Z,12.26
2023-03-19T08:45:15.114Z,12.30
2023-03-19T08:47:43.499Z,12.44
2023-03-19T08:50:12.033Z,12.45
2023-03-19T08:52:41.649Z,12.60
2023-03-19T08:55:09.726Z,12.71
2023-03-19T08:57:37.736Z,12.83
2023-03-19T09:00:08.382Z,12.98
2023-03-19T09:02:36.098Z,13.07
2023-03-19T09:05:03.569Z,13.19
2023-03-19T09:07:30.636Z,13.44
2023-03-19T09:10:02.166Z,13.76
2023-03-19T09:12:29.161Z,14.12
2023-03-19T09:14:56.228Z,14.55
2023-03-19T09:17:23.207Z,14.79
2023-03-19T09:19:50.873Z,14.69
2023-03-19T09:22:17.881Z,14.81
2023-03-19T09:24:44.867Z,15.09
2023-03-19T09:27:12.036Z,15.27
2023-03-19T09:29:39.019Z,15.31
2023-03-19T09:32:06.455Z,15.24
2023-03-19T09:34:34.020Z,15.25
2023-03-19T09:37:01.554Z,15.09
2023-03-19T09:39:29.052Z,15.24
2023-03-19T09:42:55.556Z,15.50
2023-03-19T09:45:23.706Z,15.78
2023-03-19T09:47:57.149Z,15.90
2023-03-19T09:50:28.857Z,16.30
2023-03-19T09:53:17.193Z,16.29
2023-03-19T09:55:50.493Z,15.94
2023-03-19T09:58:21.288Z,16.70
2023-03-19T10:00:51.374Z,16.87
2023-03-19T10:04:26.910Z,16.58
2023-03-19T10:07:10.783Z,16.37
2023-03-19T10:09:46.219Z,16.26
2023-03-19T10:12:25.129Z,17.02
2023-03-19T10:15:21.504Z,16.98
2023-03-19T10:18:17.991Z,17.34
2023-03-19T10:21:14.354Z,17.43
2023-03-19T10:24:04.668Z,17.36
2023-03-19T10:26:37.461Z,17.62
2023-03-19T10:29:15.698Z,17.84
2023-03-19T10:32:38.181Z,17.92
2023-03-19T10:35:39.955Z,17.82
2023-03-19T10:38:26.998Z,17.66
2023-03-19T10:41:15.425Z,17.40
2023-03-19T10:43:48.148Z,17.45
2023-03-19T10:46:15.840Z,17.65
2023-03-19T10:48:47.030Z,17.84
2023-03-19T10:51:21.423Z,17.23
2023-03-19T10:53:48.465Z,17.67
2023-03-19T10:56:21.020Z,17.44
2023-03-19T10:59:03.928Z,17.51
2023-03-19T11:01:40.707Z,17.52
2023-03-19T11:04:26.412Z,17.76
2023-03-19T11:07:03.839Z,17.60
2023-03-19T11:09:34.886Z,17.53
2023-03-19T11:12:27.679Z,17.32
2023-03-19T11:14:58.218Z,17.13
2023-03-19T11:17:50.075Z,16.91
2023-03-19T11:20:35.541Z,16.68
2023-03-19T11:23:09.347Z,17.04
2023-03-19T11:25:42.966Z,17.04
2023-03-19T11:28:21.087Z,16.66
2023-03-19T11:30:57.253Z,16.70
2023-03-19T11:34:28.687Z,16.53
2023-03-19T11:37:28.652Z,16.46
2023-03-19T11:40:32.209Z,16.65
2023-03-19T11:43:47.141Z,16.73
2023-03-19T11:46:22.395Z,16.41
2023-03-19T11:49:27.455Z,16.52
2023-03-19T11:52:05.637Z,16.45
2023-03-19T11:55:11.716Z,15.95
2023-03-19T11:58:34.279Z,15.77
2023-03-19T12:01:39.279Z,15.63
2023-03-19T12:04:43.270Z,15.45
2023-03-19T12:07:13.209Z,15.59
2023-03-19T12:10:01.400Z,15.49
2023-03-19T12:13:28.774Z,15.63
2023-03-19T12:16:23.051Z,15.55
2023-03-19T12:19:27.090Z,15.51
2023-03-19T12:22:07.138Z,15.59
2023-03-19T12:25:11.779Z,15.56
2023-03-19T12:27:57.375Z,15.52
2023-03-19T12:30:49.019Z,15.44
2023-03-19T12:34:14.922Z,15.27
2023-03-19T12:36:55.129Z,15.22
2023-03-19T12:39:32.052Z,15.12
2023-03-19T12:42:00.922Z,15.06
2023-03-19T12:44:47.314Z,15.13
2023-03-19T12:47:23.041Z,15.09
2023-03-19T12:50:10.438Z,14.67
2023-03-19T12:52:58.851Z,14.55
2023-03-19T12:55:59.023Z,14.34
2023-03-19T12:58:40.728Z,14.26
2023-03-19T13:01:30.415Z,14.07
2023-03-19T13:04:18.752Z,14.01
2023-03-19T13:07:18.585Z,13.96
2023-03-19T13:09:56.803Z,13.93
2023-03-19T13:12:29.781Z,13.92
2023-03-19T13:15:08.801Z,13.87
2023-03-19T13:18:03.613Z,14.04
2023-03-19T13:21:14.109Z,14.02
2023-03-19T13:23:44.182Z,14.06
2023-03-19T13:26:13.400Z,14.08
2023-03-19T13:29:09.862Z,13.96
2023-03-19T13:31:38.508Z,13.88
2023-03-19T13:34:36.651Z,13.48
2023-03-19T13:37:20.855Z,13.30
2023-03-19T13:39:52.100Z,13.30
2023-03-19T13:42:42.230Z,13.20
2023-03-19T13:45:38.660Z,13.27
2023-03-19T13:48:47.728Z,13.47
2023-03-19T13:51:29.714Z,13.70
2023-03-19T13:54:23.782Z,13.80
2023-03-19T13:57:18.475Z,14.04
2023-03-19T13:59:50.006Z,14.13
2023-03-19T14:02:22.997Z,14.35
2023-03-19T14:05:32.942Z,14.40
2023-03-19T14:07:59.953Z,14.66
2023-03-19T14:10:30.318Z,14.65
2023-03-19T14:13:09.012Z,14.59
2023-03-19T14:15:41.798Z,14.56
2023-03-19T14:18:16.659Z,14.57
2023-03-19T14:20:57.480Z,14.89
2023-03-19T14:23:39.719Z,15.34
2023-03-19T14:26:22.991Z,16.49
2023-03-19T14:29:07.434Z,16.37
2023-03-19T14:32:01.713Z,16.20
2023-03-19T14:34:43.029Z,16.85
2023-03-19T14:37:28.799Z,17.23
2023-03-19T14:40:20.583Z,16.41
2023-03-19T14:42:50.500Z,16.41
2023-03-19T14:46:00.554Z,16.35
2023-03-19T14:49:10.040Z,17.35
2023-03-19T14:51:52.056Z,16.70
2023-03-19T14:55:01.192Z,16.24
2023-03-19T14:57:36.604Z,16.25
2023-03-19T15:00:19.739Z,16.22
2023-03-19T15:02:53.248Z,15.83
2023-03-19T15:05:29.398Z,15.73
2023-03-19T15:08:11.227Z,16.16
2023-03-19T15:11:12.088Z,17.51
2023-03-19T15:14:24.907Z,16.52
2023-03-19T15:17:07.589Z,15.74
2023-03-19T15:19:36.760Z,15.79
2023-03-19T15:22:19.940Z,15.52
2023-03-19T15:24:49.027Z,15.33
2023-03-19T15:27:24.113Z,15.58
2023-03-19T15:30:06.989Z,16.05
2023-03-19T15:33:10.562Z,15.70
2023-03-19T15:35:38.367Z,15.46
2023-03-19T15:38:11.734Z,15.49
2023-03-19T15:40:41.274Z,15.45
2023-03-19T15:43:11.834Z,15.39
2023-03-19T15:45:41.555Z,15.21
2023-03-19T15:48:22.498Z,15.28
2023-03-19T15:50:56.994Z,15.43
2023-03-19T15:53:28.798Z,15.37
2023-03-19T15:55:59.881Z,15.33
2023-03-19T15:58:32.027Z,15.20
2023-03-19T16:01:01.150Z,15.13
2023-03-19T16:03:49.908Z,15.00
2023-03-19T16:06:31.993Z,14.96
2023-03-19T16:09:30.688Z,14.85
2023-03-19T16:11:58.101Z,14.83
2023-03-19T16:14:43.717Z,14.69
2023-03-19T16:17:17.219Z,14.74
2023-03-19T16:19:58.541Z,14.68
2023-03-19T16:22:34.873Z,14.69
2023-03-19T16:25:06.905Z,14.63
2023-03-19T16:27:41.145Z,14.52
2023-03-19T16:30:25.852Z,14.40
2023-03-19T16:33:03.899Z,14.87
2023-03-19T16:35:35.130Z,14.91
2023-03-19T16:38:25.230Z,14.51
2023-03-19T16:41:34.136Z,14.41
2023-03-19T16:44:17.589Z,14.34
2023-03-19T16:46:48.729Z,14.17
2023-03-19T16:49:16.188Z,14.01
2023-03-19T16:51:43.775Z,13.77
2023-03-19T16:54:17.453Z,13.61
2023-03-19T16:56:45.101Z,13.64
2023-03-19T16:59:28.039Z,13.92
2023-03-19T17:01:58.941Z,14.01
2023-03-19T17:04:29.296Z,14.05
2023-03-19T17:06:56.904Z,14.17
2023-03-19T17:09:24.302Z,14.22
2023-03-19T17:11:53.391Z,14.07
2023-03-19T17:14:22.587Z,13.94
2023-03-19T17:16:54.406Z,13.84
2023-03-19T17:19:34.941Z,13.83
2023-03-19T17:22:02.880Z,13.66
2023-03-19T17:24:35.377Z,13.60
2023-03-19T17:27:07.453Z,13.53
2023-03-19T17:29:36.144Z,13.60
2023-03-19T17:32:04.929Z,13.49
2023-03-19T17:34:36.011Z,13.29
2023-03-19T17:37:07.302Z,13.17
2023-03-19T17:39:37.666Z,13.12
2023-03-19T17:42:22.673Z,13.06
2023-03-19T17:44:49.907Z,12.95
2023-03-19T17:47:26.137Z,12.93
2023-03-19T17:49:56.594Z,12.90
2023-03-19T17:52:27.534Z,12.79
2023-03-19T17:54:55.441Z,12.68
2023-03-19T17:57:22.833Z,12.62
2023-03-19T17:59:52.662Z,12.54
2023-03-19T18:02:24.262Z,12.46
2023-03-19T18:04:57.059Z,12.33
2023-03-19T18:07:24.836Z,12.33
2023-03-19T18:09:52.044Z,12.34
2023-03-19T18:12:19.291Z,12.20
2023-03-19T18:14:46.854Z,12.07
2023-03-19T18:17:20.841Z,12.08
2023-03-19T18:19:54.750Z,12.03
2023-03-19T18:22:27.599Z,11.90
2023-03-19T18:25:08.575Z,11.90
2023-03-19T18:27:39.910Z,11.80
2023-03-19T18:30:41.932Z,11.66
2023-03-19T18:33:17.317Z,11.55
2023-03-19T18:35:47.289Z,11.55
2023-03-19T18:38:21.658Z,11.42
2023-03-19T18:40:51.506Z,11.37
2023-03-19T18:43:39.233Z,11.23
2023-03-19T18:46:11.044Z,11.25
2023-03-19T18:48:38.266Z,11.16
2023-03-19T18:51:05.656Z,11.13
2023-03-19T18:53:35.854Z,11.10
2023-03-19T18:56:07.800Z,11.08
2023-03-19T18:58:35.145Z,11.04
2023-03-19T19:01:04.541Z,11.03
2023-03-19T19:03:33.725Z,10.94
2023-03-19T19:06:00.885Z,10.83
2023-03-19T19:08:30.417Z,10.66
2023-03-19T19:11:50.272Z,10.56
2023-03-19T19:14:22.375Z,10.46
2023-03-19T19:16:50.389Z,10.29
2023-03-19T19:19:27.818Z,10.22
2023-03-19T19:21:55.184Z,10.08
2023-03-19T19:24:22.460Z,9.99
2023-03-19T19:26:55.731Z,9.97
2023-03-19T19:29:28.468Z,10.01
2023-03-19T19:32:00.254Z,9.96
2023-03-19T19:34:27.837Z,9.78
2023-03-19T19:36:58.685Z,9.82
2023-03-19T19:39:26.436Z,9.67
2023-03-19T19:41:55.963Z,9.49
2023-03-19T19:44:23.428Z,9.44
2023-03-19T19:46:53.438Z,9.39
2023-03-19T19:49:21.882Z,9.30
2023-03-19T19:51:48.971Z,9.15
2023-03-19T19:54:18.595Z,9.30
2023-03-19T19:56:45.999Z,9.27
2023-03-19T19:59:23.019Z,9.23
2023-03-19T20:01:50.897Z,9.07
2023-03-19T20:04:18.417Z,9.07
2023-03-19T20:06:51.441Z,9.11
2023-03-19T20:09:20.050Z,9.13
2023-03-19T20:11:47.919Z,9.20
2023-03-19T20:14:15.367Z,9.19
2023-03-19T20:16:42.589Z,9.18
2023-03-19T20:19:20.290Z,9.14
2023-03-19T20:21:53.604Z,9.08
2023-03-19T20:24:21.037Z,9.07
2023-03-19T20:26:56.846Z,9.07
2023-03-19T20:29:23.867Z,9.04
2023-03-19T20:31:51.002Z,8.94
2023-03-19T20:34:32.549Z,8.89
2023-03-19T20:37:05.347Z,8.72
2023-03-19T20:39:32.384Z,8.70
2023-03-19T20:41:59.482Z,8.67
2023-03-19T20:44:26.576Z,8.71
2023-03-19T20:46:53.779Z,8.71
2023-03-19T20:49:21.240Z,8.80
2023-03-19T20:51:48.350Z,8.87
2023-03-19T20:54:16.574Z,8.82
2023-03-19T20:56:45.902Z,8.89
2023-03-19T20:59:13.464Z,9.09
2023-03-19T21:01:42.947Z,9.07
2023-03-19T21:04:19.807Z,9.01
2023-03-19T21:06:53.375Z,8.96
2023-03-19T21:09:21.687Z,9.10
2023-03-19T21:11:49.264Z,9.29
2023-03-19T21:14:16.322Z,9.58
2023-03-19T21:16:43.778Z,9.69
2023-03-19T21:19:12.682Z,9.92
2023-03-19T21:21:40.094Z,9.99
2023-03-19T21:24:19.743Z,9.99
2023-03-19T21:26:47.345Z,10.10
2023-03-19T21:29:22.750Z,10.03
2023-03-19T21:31:50.258Z,10.14
2023-03-19T21:34:17.259Z,10.22
2023-03-19T21:36:44.238Z,10.20
2023-03-19T21:39:11.740Z,10.23
2023-03-19T21:41:38.747Z,10.19
2023-03-19T21:44:14.437Z,10.11
2023-03-19T21:46:41.514Z,10.14
2023-03-19T21:49:12.437Z,10.21
2023-03-19T21:51:39.588Z,10.19
2023-03-19T21:54:06.612Z,10.11
2023-03-19T21:56:40.828Z,10.09
2023-03-19T21:59:28.321Z,10.15
2023-03-19T22:01:56.399Z,10.11
2023-03-19T22:04:23.682Z,10.14
2023-03-19T22:06:50.749Z,10.01
2023-03-19T22:09:17.837Z,10.04
2023-03-19T22:11:46.110Z,10.04
2023-03-19T22:14:20.744Z,10.16
2023-03-19T22:16:52.721Z,10.09
2023-03-19T22:19:20.351Z,9.95
2023-03-19T22:21:48.162Z,9.83
2023-03-19T22:24:15.430Z,9.81
2023-03-19T22:26:43.588Z,9.73
2023-03-19T22:29:25.340Z,9.77
2023-03-19T22:31:54.842Z,9.78
2023-03-19T22:34:25.751Z,9.76
2023-03-19T22:36:52.894Z,9.86
2023-03-19T22:39:19.935Z,9.93
2023-03-19T22:42:19.020Z,10.01
2023-03-19T22:45:03.238Z,9.99
2023-03-19T22:47:55.150Z,9.95
2023-03-19T22:50:42.781Z,10.02
2023-03-19T22:53:54.495Z,10.00
2023-03-19T22:56:40.371Z,10.08
2023-03-19T22:59:19.891Z,10.12
2023-03-19T23:02:09.360Z,10.10
2023-03-19T23:04:58.191Z,10.12
2023-03-19T23:07:42.303Z,10.03
2023-03-19T23:10:18.938Z,10.04
2023-03-19T23:13:12.142Z,9.98
2023-03-19T23:16:01.043Z,9.97
2023-03-19T23:18:47.331Z,9.88
2023-03-19T23:21:30.259Z,9.87
2023-03-19T23:24:13.878Z,9.88
2023-03-19T23:26:59.730Z,9.91
2023-03-19T23:29:52.901Z,9.91
2023-03-19T23:32:20.768Z,9.75
2023-03-19T23:34:58.542Z,9.63
2023-03-19T23:37:26.449Z,9.50
2023-03-19T23:39:53.778Z,9.42
2023-03-19T23:42:31.976Z,9.43
2023-03-19T23:45:03.683Z,9.41
2023-03-19T23:47:31.124Z,9.43
2023-03-19T23:49:58.402Z,9.48
2023-03-19T23:52:25.456Z,9.51
2023-03-19T23:54:52.591Z,9.47
2023-03-19T23:57:26.921Z,9.48
2023-03-19T23:59:54.289Z,9.51
